createdAt,value
2023-05-05T00:00:20.103Z,35.04
2023-05-05T00:01:20.125Z,35.05
2023-05-05T00:02:20.206Z,35.07
2023-05-05T00:03:20.236Z,35.10
2023-05-05T00:04:20.328Z,35.09
2023-05-05T00:05:20.324Z,35.07
2023-05-05T00:06:20.339Z,35.05
2023-05-05T00:07:20.378Z,35.08
2023-05-05T00:08:20.416Z,35.09
2023-05-05T00:09:20.498Z,35.06
2023-05-05T00:10:20.500Z,35.05
2023-05-05T00:11:20.540Z,35.06
2023-05-05T00:12:21.351Z,35.06
2023-05-05T00:13:20.614Z,35.08
2023-05-05T00:14:20.664Z,35.06
2023-05-05T00:15:20.677Z,35.07
2023-05-05T00:16:20.760Z,35.07
2023-05-05T00:17:20.771Z,35.05
2023-05-05T00:18:20.846Z,35.06
2023-05-05T00:19:20.887Z,35.05
2023-05-05T00:20:20.909Z,35.08
2023-05-05T00:21:20.972Z,35.06
2023-05-05T00:22:20.995Z,35.02
2023-05-05T00:23:21.066Z,35.08
2023-05-05T00:24:21.135Z,35.05
2023-05-05T00:25:21.140Z,35.06
2023-05-05T00:26:21.193Z,34.99
2023-05-05T00:27:21.254Z,35.04
2023-05-05T00:28:21.297Z,35.06
2023-05-05T00:29:21.352Z,35.04
2023-05-05T00:30:21.375Z,35.04
2023-05-05T00:31:21.490Z,35.06
2023-05-05T00:32:21.511Z,35.07
2023-05-05T00:33:21.541Z,35.01
2023-05-05T00:34:21.580Z,35.03
2023-05-05T00:35:21.624Z,35.05
2023-05-05T00:36:21.678Z,35.02
2023-05-05T00:37:21.718Z,35.01
2023-05-05T00:38:21.750Z,35.00
2023-05-05T00:39:21.828Z,35.00
2023-05-05T00:40:21.853Z,35.01
2023-05-05T00:41:21.924Z,35.03
2023-05-05T00:42:21.973Z,34.98
2023-05-05T00:43:22.010Z,34.99
2023-05-05T00:44:22.056Z,34.97
2023-05-05T00:45:22.088Z,35.05
2023-05-05T00:46:22.219Z,35.02
2023-05-05T00:47:22.172Z,35.00
2023-05-05T00:48:22.219Z,34.95
2023-05-05T00:49:22.310Z,35.00
2023-05-05T00:50:22.324Z,35.00
2023-05-05T00:51:22.364Z,34.99
2023-05-05T00:52:22.407Z,34.97
2023-05-05T00:53:22.445Z,35.00
2023-05-05T00:54:22.488Z,34.98
2023-05-05T00:55:22.531Z,34.99
2023-05-05T00:56:22.599Z,34.97
2023-05-05T00:57:22.635Z,35.01
2023-05-05T00:58:22.672Z,34.95
2023-05-05T00:59:22.726Z,34.97
2023-05-05T01:00:22.764Z,34.98
2023-05-05T01:01:22.854Z,35.01
2023-05-05T01:02:22.872Z,35.04
2023-05-05T01:03:22.966Z,34.99
2023-05-05T01:04:22.918Z,34.94
2023-05-05T01:05:22.995Z,34.99
2023-05-05T01:06:23.052Z,34.98
2023-05-05T01:07:23.072Z,34.99
2023-05-05T01:08:23.871Z,34.99
2023-05-05T01:09:23.169Z,34.98
2023-05-05T01:10:23.520Z,34.95
2023-05-05T01:11:23.258Z,34.95
2023-05-05T01:12:23.296Z,34.98
2023-05-05T01:13:23.397Z,35.01
2023-05-05T01:14:23.485Z,34.99
2023-05-05T01:15:23.461Z,34.97
2023-05-05T01:16:23.612Z,34.94
2023-05-05T01:17:23.635Z,34.95
2023-05-05T01:18:23.617Z,34.99
2023-05-05T01:19:23.670Z,34.96
2023-05-05T01:20:23.751Z,34.97
2023-05-05T01:21:23.782Z,34.98
2023-05-05T01:22:23.771Z,34.99
2023-05-05T01:23:23.852Z,35.01
2023-05-05T01:24:23.889Z,34.99
2023-05-05T01:25:23.954Z,34.97
2023-05-05T01:26:23.979Z,34.98
2023-05-05T01:27:24.063Z,35.02
2023-05-05T01:28:24.119Z,35.01
2023-05-05T01:29:24.144Z,35.00
2023-05-05T01:30:24.187Z,35.00
2023-05-05T01:31:24.251Z,34.99
2023-05-05T01:32:24.294Z,34.99
2023-05-05T01:33:24.338Z,35.00
2023-05-05T01:34:24.379Z,35.01
2023-05-05T01:35:24.432Z,34.97
2023-05-05T01:36:24.478Z,34.98
2023-05-05T01:37:24.537Z,34.99
2023-05-05T01:38:24.579Z,34.99
2023-05-05T01:39:24.621Z,34.98
2023-05-05T01:40:24.732Z,34.99
2023-05-05T01:41:24.750Z,34.97
2023-05-05T01:42:24.782Z,34.98
2023-05-05T01:43:24.845Z,34.99
2023-05-05T01:44:24.907Z,35.02
2023-05-05T01:45:24.933Z,35.04
2023-05-05T01:46:25.010Z,35.02
2023-05-05T01:47:25.170Z,34.99
2023-05-05T01:48:25.121Z,35.03
2023-05-05T01:49:25.181Z,34.98
2023-05-05T01:50:25.217Z,34.99
2023-05-05T01:51:25.261Z,34.98
2023-05-05T01:52:25.327Z,34.98
2023-05-05T01:53:25.371Z,34.98
2023-05-05T01:54:25.415Z,34.99
2023-05-05T01:55:25.472Z,34.96
2023-05-05T01:56:25.530Z,34.99
2023-05-05T01:57:25.540Z,34.98
2023-05-05T01:58:25.609Z,34.98
2023-05-05T01:59:25.630Z,34.98
2023-05-05T02:00:25.677Z,34.97
2023-05-05T02:01:25.777Z,35.02
2023-05-05T02:02:25.870Z,35.01
2023-05-05T02:03:25.898Z,34.98
2023-05-05T02:04:25.887Z,35.00
2023-05-05T02:05:25.950Z,34.99
2023-05-05T02:06:26.020Z,35.01
2023-05-05T02:07:26.061Z,34.98
2023-05-05T02:08:26.893Z,35.00
2023-05-05T02:09:26.150Z,34.98
2023-05-05T02:10:26.249Z,34.97
2023-05-05T02:11:26.312Z,35.01
2023-05-05T02:12:26.309Z,34.99
2023-05-05T02:13:26.413Z,35.01
2023-05-05T02:14:26.483Z,34.99
2023-05-05T02:15:26.500Z,34.97
2023-05-05T02:16:26.608Z,34.95
2023-05-05T02:17:26.646Z,34.96
2023-05-05T02:18:26.710Z,34.99
2023-05-05T02:19:27.393Z,34.98
2023-05-05T02:20:26.778Z,34.96
2023-05-05T02:21:26.880Z,34.97
2023-05-05T02:22:26.937Z,35.01
2023-05-05T02:23:27.002Z,34.96
2023-05-05T02:24:27.016Z,34.98
2023-05-05T02:25:27.081Z,34.97
2023-05-05T02:26:27.144Z,34.98
2023-05-05T02:27:27.209Z,34.99
2023-05-05T02:28:27.262Z,34.99
2023-05-05T02:29:27.312Z,34.98
2023-05-05T02:30:27.379Z,34.98
2023-05-05T02:31:27.518Z,34.98
2023-05-05T02:32:27.468Z,34.94
2023-05-05T02:33:27.526Z,34.96
2023-05-05T02:34:27.587Z,34.99
2023-05-05T02:35:27.636Z,35.01
2023-05-05T02:36:27.722Z,34.94
2023-05-05T02:37:27.768Z,35.01
2023-05-05T02:38:27.818Z,35.02
2023-05-05T02:39:27.868Z,35.04
2023-05-05T02:40:27.901Z,34.98
2023-05-05T02:41:27.982Z,35.01
2023-05-05T02:43:28.104Z,35.00
2023-05-05T02:44:28.192Z,35.01
2023-05-05T02:45:28.218Z,35.01
2023-05-05T02:46:28.365Z,35.00
2023-05-05T02:47:28.383Z,35.01
2023-05-05T02:48:28.415Z,34.98
2023-05-05T02:49:28.454Z,35.01
2023-05-05T02:50:28.501Z,34.99
2023-05-05T02:51:28.595Z,34.98
2023-05-05T02:52:28.633Z,35.05
2023-05-05T02:53:28.689Z,35.03
2023-05-05T02:54:28.734Z,34.98
2023-05-05T02:55:28.786Z,34.95
2023-05-05T02:56:28.855Z,35.03
2023-05-05T02:57:28.896Z,34.99
2023-05-05T02:58:28.970Z,34.97
2023-05-05T02:59:29.031Z,35.01
2023-05-05T03:00:29.109Z,35.03
2023-05-05T03:01:29.205Z,34.99
2023-05-05T03:02:29.303Z,34.99
2023-05-05T03:03:29.404Z,35.01
2023-05-05T03:04:29.382Z,35.01
2023-05-05T03:05:29.428Z,34.99
2023-05-05T03:06:29.470Z,35.02
2023-05-05T03:07:29.494Z,34.99
2023-05-05T03:08:29.614Z,35.02
2023-05-05T03:09:29.660Z,34.97
2023-05-05T03:10:29.701Z,34.98
2023-05-05T03:11:29.764Z,34.97
2023-05-05T03:12:29.858Z,35.02
2023-05-05T03:13:29.870Z,34.99
2023-05-05T03:14:32.115Z,35.01
2023-05-05T03:15:29.966Z,35.04
2023-05-05T03:16:29.970Z,35.02
2023-05-05T03:17:29.956Z,34.99
2023-05-05T03:18:29.913Z,35.00
2023-05-05T03:19:29.913Z,35.01
2023-05-05T03:20:29.924Z,34.99
2023-05-05T03:21:29.933Z,35.01
2023-05-05T03:22:29.901Z,34.98
2023-05-05T03:23:29.904Z,34.98
2023-05-05T03:24:29.891Z,35.00
2023-05-05T03:25:29.860Z,35.01
2023-05-05T03:26:29.872Z,35.00
2023-05-05T03:27:29.872Z,34.98
2023-05-05T03:28:29.819Z,34.99
2023-05-05T03:29:29.851Z,34.98
2023-05-05T03:30:29.795Z,35.03
2023-05-05T03:31:29.822Z,34.98
2023-05-05T03:32:29.866Z,35.00
2023-05-05T03:33:29.818Z,35.00
2023-05-05T03:34:29.811Z,34.98
2023-05-05T03:35:29.774Z,34.99
2023-05-05T03:36:29.811Z,34.98
2023-05-05T03:37:29.751Z,34.98
2023-05-05T03:38:29.779Z,34.99
2023-05-05T03:39:29.746Z,34.97
2023-05-05T03:40:43.015Z,34.95
2023-05-05T03:41:30.788Z,35.03
2023-05-05T03:42:29.731Z,35.01
2023-05-05T03:43:29.761Z,34.96
2023-05-05T03:44:29.712Z,35.00
2023-05-05T03:45:29.765Z,35.01
2023-05-05T03:46:29.728Z,34.97
2023-05-05T03:47:29.708Z,35.00
2023-05-05T03:48:29.713Z,34.97
2023-05-05T03:49:29.804Z,34.96
2023-05-05T03:50:29.831Z,34.99
2023-05-05T03:51:29.934Z,34.98
2023-05-05T03:52:29.937Z,35.00
2023-05-05T03:53:30.022Z,34.99
2023-05-05T03:54:30.096Z,35.00
2023-05-05T03:55:30.170Z,35.04
2023-05-05T03:56:30.257Z,35.04
2023-05-05T03:57:30.279Z,34.99
2023-05-05T03:58:30.324Z,34.99
2023-05-05T03:59:30.404Z,35.00
2023-05-05T04:00:30.495Z,35.01
2023-05-05T04:01:30.526Z,34.97
2023-05-05T04:02:30.628Z,35.00
2023-05-05T04:03:30.820Z,34.99
2023-05-05T04:04:30.737Z,34.96
2023-05-05T04:05:30.788Z,34.99
2023-05-05T04:06:30.877Z,35.01
2023-05-05T04:07:30.888Z,34.98
2023-05-05T04:08:30.983Z,35.00
2023-05-05T04:09:31.043Z,35.00
2023-05-05T04:10:31.073Z,34.97
2023-05-05T04:11:31.147Z,34.96
2023-05-05T04:12:31.193Z,34.97
2023-05-05T04:13:31.218Z,34.97
2023-05-05T04:14:31.250Z,35.00
2023-05-05T04:15:31.317Z,34.98
2023-05-05T04:16:31.394Z,34.97
2023-05-05T04:17:31.462Z,34.97
2023-05-05T04:18:31.520Z,34.98
2023-05-05T04:19:31.526Z,35.00
2023-05-05T04:20:31.594Z,34.96
2023-05-05T04:21:31.663Z,34.94
2023-05-05T04:22:31.683Z,34.97
2023-05-05T04:23:31.739Z,34.97
2023-05-05T04:24:31.809Z,34.98
2023-05-05T04:25:31.878Z,34.96
2023-05-05T04:26:32.500Z,34.96
2023-05-05T04:27:31.991Z,34.96
2023-05-05T04:28:32.030Z,34.97
2023-05-05T04:29:32.074Z,34.94
2023-05-05T04:30:32.089Z,34.97
2023-05-05T04:31:32.227Z,34.96
2023-05-05T04:32:32.254Z,34.97
2023-05-05T04:33:32.253Z,34.96
2023-05-05T04:34:32.337Z,34.96
2023-05-05T04:35:32.377Z,34.97
2023-05-05T04:36:32.488Z,34.95
2023-05-05T04:37:32.933Z,34.97
2023-05-05T04:38:32.784Z,34.96
2023-05-05T04:39:32.615Z,34.99
2023-05-05T04:40:32.694Z,34.97
2023-05-05T04:41:32.767Z,34.98
2023-05-05T04:42:32.811Z,34.96
2023-05-05T04:43:32.851Z,34.96
2023-05-05T04:44:32.893Z,34.97
2023-05-05T04:45:32.982Z,34.95
2023-05-05T04:46:33.106Z,34.97
2023-05-05T04:47:33.084Z,34.95
2023-05-05T04:48:33.126Z,35.00
2023-05-05T04:49:33.235Z,34.99
2023-05-05T04:50:33.239Z,34.98
2023-05-05T04:51:33.246Z,35.00
2023-05-05T04:52:33.307Z,34.95
2023-05-05T04:53:33.375Z,34.97
2023-05-05T04:54:33.419Z,35.00
2023-05-05T04:55:33.455Z,35.05
2023-05-05T04:56:33.579Z,35.08
2023-05-05T04:57:34.467Z,35.05
2023-05-05T04:58:33.661Z,35.05
2023-05-05T04:59:33.723Z,35.03
2023-05-05T05:00:33.803Z,35.03
2023-05-05T05:01:35.717Z,35.06
2023-05-05T05:02:33.887Z,35.07
2023-05-05T05:03:33.968Z,35.07
2023-05-05T05:04:33.833Z,35.08
2023-05-05T05:05:33.813Z,35.09
2023-05-05T05:06:33.804Z,35.11
2023-05-05T05:07:33.817Z,35.11
2023-05-05T05:08:33.829Z,35.12
2023-05-05T05:09:33.800Z,35.14
2023-05-05T05:10:33.783Z,35.15
2023-05-05T05:11:33.776Z,35.18
2023-05-05T05:12:33.813Z,35.20
2023-05-05T05:13:33.755Z,35.22
2023-05-05T05:14:33.743Z,35.16
2023-05-05T05:15:33.734Z,35.23
2023-05-05T05:16:34.027Z,35.26
2023-05-05T05:17:33.774Z,35.23
2023-05-05T05:18:33.716Z,35.24
2023-05-05T05:19:33.726Z,35.25
2023-05-05T05:20:33.748Z,35.26
2023-05-05T05:21:33.710Z,35.24
2023-05-05T05:22:33.693Z,35.25
2023-05-05T05:23:33.726Z,35.23
2023-05-05T05:24:33.673Z,35.27
2023-05-05T05:25:33.690Z,35.32
2023-05-05T05:26:33.685Z,35.30
2023-05-05T05:27:33.684Z,35.30
2023-05-05T05:28:33.654Z,35.30
2023-05-05T05:29:33.668Z,35.31
2023-05-05T05:30:33.638Z,35.32
2023-05-05T05:31:33.685Z,35.31
2023-05-05T05:32:33.676Z,35.30
2023-05-05T05:33:33.670Z,35.33
2023-05-05T05:34:33.649Z,35.37
2023-05-05T05:35:33.658Z,35.37
2023-05-05T05:36:33.688Z,35.62
2023-05-05T05:37:33.696Z,36.02
2023-05-05T05:38:33.706Z,35.92
2023-05-05T05:39:33.788Z,35.81
2023-05-05T05:40:33.867Z,35.83
2023-05-05T05:41:33.910Z,36.14
2023-05-05T05:42:33.952Z,36.46
2023-05-05T05:43:34.036Z,36.53
2023-05-05T05:44:34.071Z,36.62
2023-05-05T05:45:34.113Z,36.96
2023-05-05T05:46:34.249Z,37.11
2023-05-05T05:47:34.245Z,37.48
2023-05-05T05:48:34.270Z,38.01
2023-05-05T05:49:34.304Z,37.83
2023-05-05T05:50:34.304Z,38.27
2023-05-05T05:51:34.365Z,38.34
2023-05-05T05:52:34.409Z,38.32
2023-05-05T05:53:34.400Z,38.24
2023-05-05T05:54:34.434Z,38.82
2023-05-05T05:55:34.498Z,38.77
2023-05-05T05:56:34.486Z,38.81
2023-05-05T05:57:34.530Z,38.83
2023-05-05T05:58:34.514Z,38.91
2023-05-05T05:59:34.520Z,38.91
2023-05-05T06:00:34.543Z,38.95
2023-05-05T06:01:35.007Z,39.07
2023-05-05T06:02:34.643Z,39.05
2023-05-05T06:03:34.739Z,39.24
2023-05-05T06:04:34.655Z,39.25
2023-05-05T06:05:34.558Z,39.24
2023-05-05T06:06:34.554Z,39.26
2023-05-05T06:07:34.551Z,39.26
2023-05-05T06:08:34.578Z,39.35
2023-05-05T06:09:34.541Z,39.46
2023-05-05T06:10:34.799Z,39.56
2023-05-05T06:11:34.544Z,39.72
2023-05-05T06:12:34.594Z,39.70
2023-05-05T06:13:34.567Z,39.72
2023-05-05T06:14:34.539Z,39.90
2023-05-05T06:15:34.615Z,39.92
2023-05-05T06:16:34.711Z,40.04
2023-05-05T06:17:34.681Z,40.06
2023-05-05T06:18:34.714Z,40.08
2023-05-05T06:19:34.755Z,40.25
2023-05-05T06:20:34.798Z,40.28
2023-05-05T06:21:34.880Z,40.26
2023-05-05T06:22:34.943Z,40.37
2023-05-05T06:23:35.003Z,40.80
2023-05-05T06:24:35.070Z,40.62
2023-05-05T06:25:35.136Z,40.58
2023-05-05T06:26:35.193Z,40.75
2023-05-05T06:27:35.252Z,40.72
2023-05-05T06:28:35.315Z,40.85
2023-05-05T06:29:35.339Z,40.93
2023-05-05T06:30:35.389Z,40.95
2023-05-05T06:31:35.493Z,40.99
2023-05-05T06:32:35.533Z,41.05
2023-05-05T06:33:35.580Z,41.09
2023-05-05T06:34:35.654Z,41.20
2023-05-05T06:35:35.680Z,41.33
2023-05-05T06:36:35.802Z,41.28
2023-05-05T06:37:35.803Z,41.31
2023-05-05T06:38:35.847Z,41.41
2023-05-05T06:39:35.910Z,41.44
2023-05-05T06:40:35.952Z,41.51
2023-05-05T06:41:36.006Z,41.59
2023-05-05T06:42:36.093Z,41.64
2023-05-05T06:43:36.106Z,41.65
2023-05-05T06:44:36.152Z,41.69
2023-05-05T06:45:36.225Z,41.81
2023-05-05T06:46:36.552Z,42.15
2023-05-05T06:47:36.302Z,41.93
2023-05-05T06:48:36.343Z,42.16
2023-05-05T06:49:36.399Z,42.30
2023-05-05T06:50:36.449Z,42.31
2023-05-05T06:51:36.516Z,41.16
2023-05-05T06:52:36.525Z,41.37
2023-05-05T06:53:36.617Z,41.04
2023-05-05T06:54:36.647Z,41.29
2023-05-05T06:55:36.715Z,41.27
2023-05-05T06:56:36.812Z,41.26
2023-05-05T06:57:36.824Z,41.20
2023-05-05T06:58:36.944Z,41.15
2023-05-05T06:59:36.971Z,41.20
2023-05-05T07:00:37.124Z,41.05
2023-05-05T07:01:37.163Z,40.78
2023-05-05T07:02:37.190Z,40.68
2023-05-05T07:03:37.240Z,40.92
2023-05-05T07:04:37.276Z,40.96
2023-05-05T07:05:37.349Z,40.93
2023-05-05T07:06:37.390Z,40.90
2023-05-05T07:07:37.435Z,40.85
2023-05-05T07:08:37.476Z,40.84
2023-05-05T07:09:37.558Z,40.78
2023-05-05T07:10:37.921Z,40.78
2023-05-05T07:11:37.653Z,40.23
2023-05-05T07:12:37.764Z,40.01
2023-05-05T07:13:37.778Z,40.39
2023-05-05T07:14:37.818Z,40.39
2023-05-05T07:15:37.885Z,39.99
2023-05-05T07:16:38.050Z,39.93
2023-05-05T07:17:38.077Z,39.79
2023-05-05T07:18:38.032Z,39.62
2023-05-05T07:19:38.104Z,39.98
2023-05-05T07:20:38.167Z,40.02
2023-05-05T07:21:38.183Z,40.01
2023-05-05T07:22:38.257Z,39.78
2023-05-05T07:23:38.338Z,39.25
2023-05-05T07:24:38.378Z,39.39
2023-05-05T07:25:38.439Z,39.63
2023-05-05T07:26:38.502Z,39.10
2023-05-05T07:27:38.589Z,39.02
2023-05-05T07:28:38.633Z,39.11
2023-05-05T07:29:38.684Z,39.13
2023-05-05T07:30:38.774Z,38.54
2023-05-05T07:31:38.875Z,38.97
2023-05-05T07:32:38.895Z,38.91
2023-05-05T07:33:39.003Z,39.04
2023-05-05T07:34:38.996Z,39.08
2023-05-05T07:35:39.069Z,39.02
2023-05-05T07:36:39.078Z,38.95
2023-05-05T07:37:39.124Z,38.50
2023-05-05T07:38:39.218Z,38.47
2023-05-05T07:39:39.234Z,38.73
2023-05-05T07:40:39.292Z,38.95
2023-05-05T07:41:39.545Z,38.82
2023-05-05T07:42:39.411Z,38.53
2023-05-05T07:43:39.712Z,38.69
2023-05-05T07:44:39.548Z,38.24
2023-05-05T07:45:39.616Z,38.19
2023-05-05T07:46:39.692Z,38.10
2023-05-05T07:47:39.753Z,37.57
2023-05-05T07:48:39.776Z,37.55
2023-05-05T07:49:39.859Z,37.68
2023-05-05T07:50:39.852Z,38.10
2023-05-05T07:51:39.924Z,38.45
2023-05-05T07:53:39.984Z,38.33
2023-05-05T07:54:39.974Z,38.39
2023-05-05T07:55:40.006Z,38.53
2023-05-05T07:56:39.979Z,38.55
2023-05-05T07:57:39.968Z,38.49
2023-05-05T07:58:39.928Z,38.44
2023-05-05T07:59:39.932Z,38.55
2023-05-05T08:00:39.935Z,38.69
2023-05-05T08:01:39.923Z,38.79
2023-05-05T08:02:40.072Z,38.53
2023-05-05T08:03:40.101Z,38.68
2023-05-05T08:04:39.918Z,38.93
2023-05-05T08:05:40.023Z,39.07
2023-05-05T08:06:39.959Z,39.04
2023-05-05T08:07:39.905Z,38.77
2023-05-05T08:08:39.869Z,38.89
2023-05-05T08:09:39.852Z,38.98
2023-05-05T08:10:39.845Z,38.81
2023-05-05T08:11:39.856Z,38.60
2023-05-05T08:12:39.964Z,38.84
2023-05-05T08:13:39.854Z,38.89
2023-05-05T08:14:39.850Z,38.74
2023-05-05T08:15:39.890Z,38.64
2023-05-05T08:16:39.835Z,38.61
2023-05-05T08:17:39.841Z,38.47
2023-05-05T08:18:39.803Z,38.79
2023-05-05T08:19:39.798Z,38.66
2023-05-05T08:20:39.782Z,38.93
2023-05-05T08:21:39.865Z,38.64
2023-05-05T08:22:39.783Z,38.43
2023-05-05T08:23:39.801Z,38.80
2023-05-05T08:24:39.786Z,38.94
2023-05-05T08:25:39.870Z,38.87
2023-05-05T08:26:39.742Z,39.16
2023-05-05T08:27:39.766Z,39.22
2023-05-05T08:28:39.752Z,39.17
2023-05-05T08:29:39.745Z,39.16
2023-05-05T08:30:39.708Z,39.28
2023-05-05T08:31:39.827Z,39.21
2023-05-05T08:32:39.810Z,39.30
2023-05-05T08:33:39.708Z,39.44
2023-05-05T08:34:39.659Z,39.48
2023-05-05T08:35:39.669Z,39.63
2023-05-05T08:36:39.713Z,39.39
2023-05-05T08:37:40.183Z,38.26
2023-05-05T08:38:39.688Z,37.81
2023-05-05T08:39:39.681Z,37.94
2023-05-05T08:40:39.687Z,38.13
2023-05-05T08:41:39.648Z,38.27
2023-05-05T08:42:39.801Z,38.39
2023-05-05T08:43:39.645Z,38.41
2023-05-05T08:44:39.669Z,38.59
2023-05-05T08:45:39.620Z,37.28
2023-05-05T08:46:39.626Z,37.25
2023-05-05T08:47:40.215Z,36.50
2023-05-05T08:48:39.593Z,36.09
2023-05-05T08:49:39.566Z,34.93
2023-05-05T08:50:39.559Z,34.29
2023-05-05T08:51:39.579Z,34.07
2023-05-05T08:52:39.640Z,33.43
2023-05-05T08:53:39.687Z,33.81
2023-05-05T08:54:39.575Z,34.19
2023-05-05T08:55:39.580Z,34.43
2023-05-05T08:56:39.546Z,34.47
2023-05-05T08:57:39.547Z,34.88
2023-05-05T08:58:39.513Z,34.71
2023-05-05T08:59:39.518Z,35.06
2023-05-05T09:00:39.535Z,35.28
2023-05-05T09:01:39.520Z,35.58
2023-05-05T09:02:39.672Z,35.84
2023-05-05T09:03:39.504Z,35.99
2023-05-05T09:04:39.480Z,35.52
2023-05-05T09:05:39.464Z,35.85
2023-05-05T09:06:39.438Z,35.49
2023-05-05T09:07:39.595Z,35.85
2023-05-05T09:08:39.466Z,35.92
2023-05-05T09:09:39.529Z,35.99
2023-05-05T09:10:39.437Z,36.05
2023-05-05T09:11:39.425Z,36.33
2023-05-05T09:12:39.495Z,36.25
2023-05-05T09:13:39.408Z,36.53
2023-05-05T09:14:39.425Z,36.64
2023-05-05T09:15:39.394Z,36.54
2023-05-05T09:16:39.433Z,36.69
2023-05-05T09:17:39.434Z,36.59
2023-05-05T09:18:39.380Z,36.68
2023-05-05T09:19:39.350Z,36.63
2023-05-05T09:20:39.361Z,36.66
2023-05-05T09:21:39.348Z,36.73
2023-05-05T09:22:39.618Z,36.81
2023-05-05T09:23:39.332Z,36.93
2023-05-05T09:24:39.341Z,37.02
2023-05-05T09:25:39.401Z,36.88
2023-05-05T09:26:39.323Z,37.18
2023-05-05T09:27:39.613Z,37.12
2023-05-05T09:28:39.368Z,37.02
2023-05-05T09:29:39.445Z,37.01
2023-05-05T09:30:39.505Z,37.25
2023-05-05T09:31:39.566Z,37.23
2023-05-05T09:32:39.671Z,37.25
2023-05-05T09:33:39.682Z,37.35
2023-05-05T09:34:39.741Z,37.40
2023-05-05T09:35:39.772Z,37.55
2023-05-05T09:36:39.871Z,37.58
2023-05-05T09:37:40.111Z,37.58
2023-05-05T09:38:39.977Z,37.72
2023-05-05T09:39:40.037Z,37.53
2023-05-05T09:40:40.100Z,37.65
2023-05-05T09:41:40.209Z,37.70
2023-05-05T09:42:40.609Z,37.78
2023-05-05T09:43:40.242Z,37.74
2023-05-05T09:44:40.314Z,37.73
2023-05-05T09:45:40.351Z,37.78
2023-05-05T09:46:40.474Z,37.92
2023-05-05T09:47:40.505Z,38.04
2023-05-05T09:48:40.533Z,38.29
2023-05-05T09:49:40.547Z,38.51
2023-05-05T09:50:40.636Z,38.70
2023-05-05T09:51:40.688Z,38.76
2023-05-05T09:52:40.717Z,38.85
2023-05-05T09:53:40.764Z,39.00
2023-05-05T09:54:40.803Z,39.07
2023-05-05T09:55:40.882Z,39.06
2023-05-05T09:56:40.924Z,39.12
2023-05-05T09:57:41.153Z,39.23
2023-05-05T09:58:41.007Z,39.31
2023-05-05T09:59:41.056Z,39.42
2023-05-05T10:00:41.090Z,39.82
2023-05-05T10:01:41.279Z,39.61
2023-05-05T10:02:41.219Z,39.69
2023-05-05T10:03:41.223Z,39.78
2023-05-05T10:04:41.319Z,39.88
2023-05-05T10:05:41.300Z,40.01
2023-05-05T10:06:41.331Z,40.16
2023-05-05T10:07:41.368Z,40.25
2023-05-05T10:08:41.444Z,40.66
2023-05-05T10:09:41.482Z,40.51
2023-05-05T10:10:41.502Z,40.51
2023-05-05T10:11:41.539Z,40.57
2023-05-05T10:12:41.572Z,40.78
2023-05-05T10:13:41.648Z,41.07
2023-05-05T10:14:41.635Z,41.02
2023-05-05T10:15:41.667Z,41.19
2023-05-05T10:16:41.710Z,41.09
2023-05-05T10:17:47.895Z,41.21
2023-05-05T10:18:42.702Z,41.44
2023-05-05T10:19:41.728Z,41.47
2023-05-05T10:20:41.698Z,41.68
2023-05-05T10:21:42.180Z,41.99
2023-05-05T10:22:41.742Z,41.87
2023-05-05T10:23:41.726Z,41.82
2023-05-05T10:24:41.758Z,41.89
2023-05-05T10:25:41.783Z,41.99
2023-05-05T10:26:41.790Z,41.98
2023-05-05T10:27:41.856Z,41.92
2023-05-05T10:28:41.842Z,41.96
2023-05-05T10:29:42.084Z,42.03
2023-05-05T10:30:41.874Z,42.12
2023-05-05T10:31:41.934Z,42.02
2023-05-05T10:33:42.032Z,42.07
2023-05-05T10:34:41.949Z,42.10
2023-05-05T10:35:41.878Z,42.31
2023-05-05T10:36:41.864Z,41.94
2023-05-05T10:37:41.864Z,41.86
2023-05-05T10:38:41.862Z,41.61
2023-05-05T10:39:41.865Z,41.48
2023-05-05T10:40:41.835Z,41.47
2023-05-05T10:41:41.860Z,41.43
2023-05-05T10:42:41.809Z,41.34
2023-05-05T10:43:41.834Z,41.37
2023-05-05T10:44:41.809Z,41.48
2023-05-05T10:45:41.988Z,41.47
2023-05-05T10:46:41.864Z,41.61
2023-05-05T10:47:41.843Z,41.59
2023-05-05T10:48:41.810Z,41.66
2023-05-05T10:49:41.766Z,41.81
2023-05-05T10:50:41.746Z,41.78
2023-05-05T10:51:41.776Z,41.80
2023-05-05T10:52:41.730Z,41.90
2023-05-05T10:53:41.736Z,41.92
2023-05-05T10:54:41.743Z,42.12
2023-05-05T10:55:41.698Z,42.30
2023-05-05T10:56:41.706Z,42.30
2023-05-05T10:57:41.743Z,42.23
2023-05-05T10:58:58.264Z,42.52
2023-05-05T10:59:42.716Z,42.44
2023-05-05T11:00:41.708Z,42.29
2023-05-05T11:01:41.738Z,42.34
2023-05-05T11:02:41.753Z,42.39
2023-05-05T11:03:41.751Z,42.30
2023-05-05T11:04:41.684Z,42.41
2023-05-05T11:05:41.677Z,42.42
2023-05-05T11:06:41.668Z,42.45
2023-05-05T11:07:41.662Z,42.32
2023-05-05T11:08:41.638Z,42.48
2023-05-05T11:09:41.624Z,42.60
2023-05-05T11:10:41.631Z,42.61
2023-05-05T11:11:41.620Z,42.83
2023-05-05T11:12:41.635Z,42.60
2023-05-05T11:13:41.612Z,42.64
2023-05-05T11:14:41.621Z,42.37
2023-05-05T11:15:41.685Z,42.26
2023-05-05T11:16:41.620Z,41.95
2023-05-05T11:17:41.717Z,41.92
2023-05-05T11:18:41.612Z,41.89
2023-05-05T11:19:41.559Z,41.94
2023-05-05T11:20:41.530Z,42.04
2023-05-05T11:21:41.559Z,42.01
2023-05-05T11:22:41.571Z,42.12
2023-05-05T11:23:41.541Z,42.15
2023-05-05T11:24:41.543Z,42.23
2023-05-05T11:25:41.497Z,42.20
2023-05-05T11:26:41.528Z,42.21
2023-05-05T11:27:41.483Z,42.78
2023-05-05T11:28:41.666Z,43.18
2023-05-05T11:29:41.495Z,42.80
2023-05-05T11:30:41.502Z,42.42
2023-05-05T11:31:41.536Z,42.14
2023-05-05T11:32:41.485Z,42.03
2023-05-05T11:33:41.735Z,41.73
2023-05-05T11:34:41.472Z,41.47
2023-05-05T11:35:41.448Z,41.14
2023-05-05T11:36:41.413Z,40.89
2023-05-05T11:37:41.428Z,40.81
2023-05-05T11:38:41.469Z,40.76
2023-05-05T11:39:41.436Z,40.36
2023-05-05T11:40:41.466Z,40.41
2023-05-05T11:41:41.468Z,40.40
2023-05-05T11:42:41.460Z,40.56
2023-05-05T11:43:41.507Z,40.47
2023-05-05T11:44:41.537Z,40.18
2023-05-05T11:45:41.523Z,40.07
2023-05-05T11:46:41.590Z,39.95
2023-05-05T11:47:41.614Z,39.83
2023-05-05T11:48:41.593Z,39.74
2023-05-05T11:49:41.674Z,39.64
2023-05-05T11:50:41.652Z,39.57
2023-05-05T11:51:41.669Z,39.53
2023-05-05T11:52:41.689Z,39.50
2023-05-05T11:53:41.697Z,39.42
2023-05-05T11:54:41.749Z,39.30
2023-05-05T11:55:41.756Z,39.36
2023-05-05T11:56:41.752Z,39.16
2023-05-05T11:57:41.807Z,39.22
2023-05-05T11:58:41.837Z,39.37
2023-05-05T11:59:41.826Z,39.22
2023-05-05T12:00:41.840Z,39.08
2023-05-05T12:01:41.882Z,38.78
2023-05-05T12:02:41.997Z,38.87
2023-05-05T12:03:42.052Z,38.82
2023-05-05T12:04:42.013Z,38.58
2023-05-05T12:05:42.080Z,38.54
2023-05-05T12:06:41.970Z,38.39
2023-05-05T12:07:42.031Z,38.33
2023-05-05T12:08:42.022Z,38.31
2023-05-05T12:09:42.020Z,38.31
2023-05-05T12:10:42.077Z,38.27
2023-05-05T12:11:42.119Z,38.13
2023-05-05T12:12:42.185Z,38.01
2023-05-05T12:13:42.143Z,37.84
2023-05-05T12:14:42.183Z,37.66
2023-05-05T12:15:42.223Z,37.77
2023-05-05T12:16:42.326Z,37.73
2023-05-05T12:17:42.303Z,37.46
2023-05-05T12:18:42.321Z,37.54
2023-05-05T12:19:42.306Z,37.65
2023-05-05T12:20:42.349Z,37.35
2023-05-05T12:21:42.337Z,37.00
2023-05-05T12:22:42.412Z,37.17
2023-05-05T12:23:42.414Z,37.09
2023-05-05T12:24:42.428Z,37.00
2023-05-05T12:25:42.435Z,37.06
2023-05-05T12:26:42.477Z,36.98
2023-05-05T12:27:42.537Z,36.94
2023-05-05T12:28:42.540Z,36.95
2023-05-05T12:29:42.561Z,37.04
2023-05-05T12:30:42.699Z,37.07
2023-05-05T12:31:42.630Z,36.87
2023-05-05T12:32:42.738Z,36.83
2023-05-05T12:33:42.703Z,36.82
2023-05-05T12:34:42.741Z,36.83
2023-05-05T12:35:42.749Z,36.78
2023-05-05T12:36:42.768Z,36.64
2023-05-05T12:37:42.805Z,36.64
2023-05-05T12:38:42.847Z,36.62
2023-05-05T12:39:42.874Z,36.51
2023-05-05T12:40:42.919Z,36.50
2023-05-05T12:41:42.951Z,36.48
2023-05-05T12:42:45.078Z,36.43
2023-05-05T12:43:42.981Z,36.43
2023-05-05T12:44:42.933Z,36.38
2023-05-05T12:45:42.980Z,36.41
2023-05-05T12:46:42.965Z,36.35
2023-05-05T12:47:43.002Z,36.16
2023-05-05T12:48:43.978Z,36.23
2023-05-05T12:49:42.961Z,36.07
2023-05-05T12:50:42.947Z,35.52
2023-05-05T12:51:42.935Z,35.24
2023-05-05T12:52:42.910Z,35.34
2023-05-05T12:53:42.978Z,35.40
2023-05-05T12:54:42.917Z,35.95
2023-05-05T12:55:42.905Z,35.90